Terminal Aerodrome Forecast
Issued by NWS Blacksburg, VA

Current Version | Previous Version | Text Only | Print | Product List | Glossary Off
Versions: 1 2 3 4 5 6 7 8 9 10 11 12 13 14 15 16 17 18 19 20 21 22 23 24

000
FTUS41 KRNK 272350
TAFBLF
TAF
KBLF 272350Z 2800/2824 26010KT P6SM OVC070
     FM280400 20006KT P6SM BKN110
      TEMPO 2804/2806 2SM SHRA OVC040
     FM280600 22005KT P6SM VCSH OVC080
     FM281200 23006KT 6SM -SHRA OVC040
     FM281700 27008KT 6SM -SHRA OVC035=

USA.gov is the U.S. government's official web portal to all federal, state and local government web resources and services.